Aérodrome :
LOGIN :

S'inscrire | Disclaimer

   EN    FR    IT 

 










Légende :    VFR   VFR Marginal   IFR   IFR Intensif   IFR Très Intensif
Visi : 
Plafond : 
>= 8 km
>= 3000ft
5 à 8 km
1000 à 3000 ft
1500m à 5 km
500 à 1000 ft
800 à 1500m
200 à 500 ft
< 800m
< 200 ft
Symboles :   Orages  Brouillard  Fortes neiges  Fortes précipitations  Vent > 20 kt
SIGMETs :   Divers  Orages  Givrage  Turbulence  Onde Orograph.  Cendres Volcan.







- Altitude de l'aérodrome : 348 ft
- Code IATA : STN
- Voir les cartes d'approche


EGSS - London Stansted

DERNIER METAR :
  • 270250Z AUTO 30003KT 7000 NCD M00/M01 Q1019

METARs EXPIRÉS :
  • 270220Z AUTO 31003KT 9000 NCD M00/M01 Q1020
  • 270150Z AUTO 31002KT 9999 NCD 00/M00 Q1020
  • 270120Z AUTO 31003KT 9999 NCD 00/M00 Q1020
  • 270050Z AUTO 31004KT 9999 NCD 01/M00 Q1020
  • 270020Z AUTO 32004KT 9999 NCD 00/M00 Q1020

TAF AMD TAF EGSS
Valide du 27 à 02h jusqu'au 28 à 06h UTC


270202Z 2702/2806 31004KT 9999 FEW030
TEMPO 2702/2708 8000
PROB30 2703/2707 1200 BR MIFG
PROB30
TEMPO 2715/2720 8000 SHRA BKN010
PROB30
TEMPO 2722/2801 7000 SHRA BKN009
ATIS : +44 1279 669 325
Pas de NOTAMs connus pour ce terrain.



MET'MAP, la Météo Aéronautique d'un coup d'oeil ! - Copyright ORBIFLY Décembre 2007 - Disclaimer

ORBIFLY MET'MAP TEAM :

Programmation & Développement : Alexandra Zaïnal
Conception & Développement : Baudouin d'Aumeries
Co-Programmation & Développement : Marc-Olivier Méhu
Soutien technique & logistique : Manuel Goepfert

Contact : metmap@orbifly.com




SOURCES & CREDITS :

   NOAA